Time;durP1;ratioP1;P1;durP2;ratioP2;P2;SDS_P1;SDS_P2;PMS_P1;PMS_P2;Temp;Humidity;BMP_temperature;BMP_pressure;BME280_temperature;BME280_humidity;BME280_pressure;Samples;Min_cycle;Max_cycle;Signal;HPM_P1;HPM_P2
2023/07/25 00:01:06;;;;;;;9.32;6.97;;;17.10;99.90;;;;;;5001450;28;20064;-77
2023/07/25 00:03:32;;;;;;;9.05;7.25;;;17.10;99.90;;;;;;5018026;28;20483;-79
2023/07/25 00:06:00;;;;;;;9.18;6.93;;;17.10;99.90;;;;;;5002016;28;20018;-79
2023/07/25 00:08:25;;;;;;;8.63;6.65;;;17.10;99.90;;;;;;5012555;28;20021;-78
2023/07/25 00:10:51;;;;;;;8.63;6.63;;;17.10;99.90;;;;;;5003681;28;20031;-77
2023/07/25 00:13:16;;;;;;;10.85;7.90;;;17.10;99.90;;;;;;5017884;28;20070;-77
2023/07/25 00:15:42;;;;;;;10.95;7.35;;;17.10;99.90;;;;;;5019376;28;20033;-77
2023/07/25 00:18:07;;;;;;;9.02;6.60;;;17.10;99.90;;;;;;5021543;28;20688;-77
2023/07/25 00:20:33;;;;;;;9.60;6.80;;;17.10;99.90;;;;;;5050496;28;20034;-78
2023/07/25 00:22:59;;;;;;;12.38;6.55;;;17.00;99.90;;;;;;5068447;28;20030;-79
2023/07/25 00:25:25;;;;;;;9.43;6.82;;;17.00;99.90;;;;;;5069576;28;20382;-78
2023/07/25 00:27:50;;;;;;;12.15;6.95;;;16.90;99.90;;;;;;5052794;28;20015;-77
2023/07/25 00:30:16;;;;;;;10.02;6.90;;;16.80;99.90;;;;;;5045520;28;20033;-80
2023/07/25 00:32:42;;;;;;;9.38;6.43;;;16.80;99.90;;;;;;5017222;28;20478;-77
2023/07/25 00:35:07;;;;;;;8.98;6.38;;;16.80;99.90;;;;;;5003446;28;20038;-77
2023/07/25 00:37:33;;;;;;;10.15;6.65;;;16.80;99.90;;;;;;5024464;28;20467;-78
2023/07/25 00:39:59;;;;;;;7.95;5.95;;;16.80;99.90;;;;;;5011320;28;20021;-79
2023/07/25 00:42:24;;;;;;;8.02;5.78;;;16.80;99.90;;;;;;5020038;28;20038;-78
2023/07/25 00:44:51;;;;;;;6.82;5.80;;;16.60;99.90;;;;;;5018074;28;20105;-79
2023/07/25 00:47:17;;;;;;;7.97;5.57;;;16.60;99.90;;;;;;5013233;28;20117;-77
2023/07/25 00:49:43;;;;;;;7.75;5.57;;;16.50;99.90;;;;;;5024417;28;20436;-78
2023/07/25 00:52:09;;;;;;;7.20;6.30;;;16.50;99.90;;;;;;5024263;28;20061;-77
2023/07/25 00:54:39;;;;;;;10.18;6.38;;;16.50;99.90;;;;;;5075652;28;20381;-79
2023/07/25 00:57:05;;;;;;;7.95;5.85;;;16.40;99.90;;;;;;4999458;28;20026;-77
2023/07/25 00:59:31;;;;;;;9.63;6.22;;;16.40;99.90;;;;;;5022950;28;20459;-77
2023/07/25 01:01:58;;;;;;;7.15;6.38;;;16.40;99.90;;;;;;5011885;28;20038;-77
2023/07/25 01:04:24;;;;;;;6.85;6.15;;;16.40;99.90;;;;;;5012253;28;20021;-78
2023/07/25 01:06:51;;;;;;;10.45;7.05;;;16.40;99.90;;;;;;4998194;28;20079;-78
2023/07/25 01:09:40;;;;;;;8.50;5.97;;;16.40;99.90;;;;;;5024220;28;20454;-77
2023/07/25 01:12:08;;;;;;;10.07;7.07;;;16.40;99.90;;;;;;5017985;28;20020;-79
2023/07/25 01:14:35;;;;;;;10.10;6.88;;;16.40;99.90;;;;;;5010747;28;20471;-78
2023/07/25 01:17:06;;;;;;;10.52;7.20;;;16.30;99.90;;;;;;5013212;28;20160;-79
2023/07/25 01:19:33;;;;;;;9.68;6.32;;;16.30;99.90;;;;;;5014733;28;20099;-78
2023/07/25 01:21:59;;;;;;;6.90;5.35;;;16.30;99.90;;;;;;5011197;28;20057;-78
2023/07/25 01:24:25;;;;;;;7.10;5.60;;;16.30;99.90;;;;;;5022410;28;20018;-79
2023/07/25 01:26:51;;;;;;;7.53;6.25;;;16.30;99.90;;;;;;5023244;28;20025;-79
2023/07/25 01:29:17;;;;;;;8.45;6.35;;;16.20;99.90;;;;;;5061121;28;20026;-79
2023/07/25 01:31:42;;;;;;;8.93;6.85;;;16.20;99.90;;;;;;5011461;28;20046;-80
2023/07/25 01:34:08;;;;;;;7.18;5.53;;;16.20;99.90;;;;;;5004090;28;20100;-79
2023/07/25 01:36:33;;;;;;;4.85;4.38;;;16.10;99.90;;;;;;5020836;28;20078;-78
2023/07/25 01:38:59;;;;;;;9.57;5.47;;;16.10;99.90;;;;;;5016194;28;20092;-79
2023/07/25 01:41:24;;;;;;;8.73;6.25;;;16.00;99.90;;;;;;5000151;28;20030;-79
2023/07/25 01:43:50;;;;;;;6.22;5.18;;;16.00;99.90;;;;;;5011829;28;20391;-79
2023/07/25 01:46:16;;;;;;;5.32;4.68;;;15.90;99.90;;;;;;5013882;28;20025;-77
2023/07/25 01:48:41;;;;;;;6.10;4.25;;;15.90;99.90;;;;;;5015250;28;20387;-79
2023/07/25 01:51:08;;;;;;;4.85;3.90;;;15.90;99.90;;;;;;5009152;28;20391;-77
2023/07/25 01:53:34;;;;;;;5.43;3.63;;;15.80;99.90;;;;;;5020068;28;20046;-79
2023/07/25 01:55:59;;;;;;;4.10;3.67;;;15.70;99.90;;;;;;5016501;28;20096;-77
2023/07/25 01:58:25;;;;;;;5.57;4.20;;;15.60;99.90;;;;;;5014829;28;20052;-79
2023/07/25 02:00:57;;;;;;;7.63;4.50;;;15.60;99.90;;;;;;5020548;28;20030;-77
2023/07/25 02:03:22;;;;;;;5.07;3.90;;;15.60;99.90;;;;;;5013863;28;20099;-79
2023/07/25 02:05:48;;;;;;;6.07;4.35;;;15.60;99.90;;;;;;5014520;28;20057;-77
2023/07/25 02:08:14;;;;;;;4.38;3.72;;;15.60;99.90;;;;;;5020709;28;20014;-77
2023/07/25 02:10:40;;;;;;;4.68;4.13;;;15.50;99.90;;;;;;5009258;28;20022;-79
2023/07/25 02:13:05;;;;;;;4.53;4.10;;;15.50;99.90;;;;;;5010537;28;20014;-79
2023/07/25 02:15:31;;;;;;;7.47;4.70;;;15.50;99.90;;;;;;5017552;28;20063;-77
2023/07/25 02:17:56;;;;;;;9.73;6.10;;;15.50;99.90;;;;;;5014569;28;20022;-77
2023/07/25 02:20:25;;;;;;;11.90;7.53;;;15.50;99.90;;;;;;5009035;28;20064;-79
2023/07/25 02:22:51;;;;;;;10.57;8.02;;;15.50;99.90;;;;;;5008106;28;20033;-79
2023/07/25 02:25:17;;;;;;;10.35;7.55;;;15.50;99.90;;;;;;5010239;28;20093;-77
2023/07/25 02:27:42;;;;;;;12.02;7.05;;;15.50;99.90;;;;;;5041655;28;20024;-77
2023/07/25 02:30:08;;;;;;;9.70;7.75;;;15.50;99.90;;;;;;5013456;28;20037;-77
2023/07/25 02:32:33;;;;;;;13.35;8.40;;;15.50;99.90;;;;;;5015777;28;20021;-77
2023/07/25 02:34:59;;;;;;;11.90;8.65;;;15.50;99.90;;;;;;5013761;28;20379;-79
2023/07/25 02:37:25;;;;;;;12.38;8.23;;;15.50;99.90;;;;;;5012622;28;20061;-79
2023/07/25 02:39:50;;;;;;;10.13;7.18;;;15.50;99.90;;;;;;5012316;28;20022;-77
2023/07/25 02:42:16;;;;;;;9.00;5.80;;;15.50;99.90;;;;;;5010001;28;20079;-79
2023/07/25 02:44:41;;;;;;;8.32;6.97;;;15.40;99.90;;;;;;5017541;28;20466;-79
2023/07/25 02:47:07;;;;;;;9.40;6.72;;;15.40;99.90;;;;;;5009729;28;20018;-77
2023/07/25 02:49:32;;;;;;;12.52;7.88;;;15.30;99.90;;;;;;4998001;28;20025;-79
2023/07/25 02:51:58;;;;;;;15.95;9.48;;;15.40;99.90;;;;;;5011732;28;20144;-79
2023/07/25 02:54:24;;;;;;;17.17;10.02;;;15.40;99.90;;;;;;5012940;28;20018;-79
2023/07/25 02:56:49;;;;;;;15.55;10.27;;;15.40;99.90;;;;;;5019561;28;20394;-77
2023/07/25 02:59:15;;;;;;;20.17;13.30;;;15.40;99.90;;;;;;5009587;28;20033;-78
2023/07/25 03:01:40;;;;;;;20.15;14.20;;;15.50;99.90;;;;;;5014724;28;20033;-79
2023/07/25 03:04:06;;;;;;;19.50;12.25;;;15.60;99.90;;;;;;4998040;28;20022;-78
2023/07/25 03:06:31;;;;;;;13.00;9.15;;;15.60;99.90;;;;;;5021184;28;20116;-77
2023/07/25 03:08:57;;;;;;;6.50;5.15;;;15.60;99.90;;;;;;5015188;28;20022;-80
2023/07/25 03:11:23;;;;;;;6.47;5.25;;;15.50;99.90;;;;;;5003162;28;20498;-80
2023/07/25 03:13:48;;;;;;;5.18;4.68;;;15.40;99.90;;;;;;5018440;28;20021;-79
2023/07/25 03:16:14;;;;;;;8.90;5.05;;;15.30;99.90;;;;;;5016226;28;20033;-78
2023/07/25 03:18:39;;;;;;;6.25;5.38;;;15.30;99.90;;;;;;5027900;28;20071;-78
2023/07/25 03:21:05;;;;;;;7.95;6.38;;;15.30;99.90;;;;;;5021627;28;20104;-80
2023/07/25 03:23:31;;;;;;;9.93;6.57;;;15.40;99.90;;;;;;5017711;28;20032;-78
2023/07/25 03:25:56;;;;;;;9.38;6.60;;;15.40;99.90;;;;;;5021758;28;20063;-78
2023/07/25 03:28:22;;;;;;;9.27;7.35;;;15.40;99.90;;;;;;5027116;28;20033;-78
2023/07/25 03:30:47;;;;;;;13.10;9.55;;;15.50;99.90;;;;;;5019586;28;20024;-77
2023/07/25 03:33:13;;;;;;;19.35;11.25;;;15.60;99.90;;;;;;5017599;28;20078;-78
2023/07/25 03:35:39;;;;;;;15.52;11.93;;;15.60;99.90;;;;;;5014960;28;20037;-77
2023/07/25 03:38:04;;;;;;;12.57;9.35;;;15.70;99.90;;;;;;5013611;28;20018;-77
2023/07/25 03:40:30;;;;;;;13.05;9.55;;;15.70;99.90;;;;;;5024432;28;20018;-78
2023/07/25 03:42:55;;;;;;;9.00;7.20;;;15.70;99.90;;;;;;5024017;28;20478;-79
2023/07/25 03:45:21;;;;;;;9.02;6.95;;;15.60;99.90;;;;;;5015669;28;20448;-79
2023/07/25 03:47:46;;;;;;;9.52;7.65;;;15.60;99.90;;;;;;5016291;28;20437;-77
2023/07/25 03:50:12;;;;;;;9.02;7.57;;;15.50;99.90;;;;;;5021826;28;20048;-77
2023/07/25 03:52:37;;;;;;;10.02;6.35;;;15.50;99.90;;;;;;5013515;28;20380;-79
2023/07/25 03:55:03;;;;;;;7.20;5.75;;;15.50;99.90;;;;;;5012592;28;20018;-79
2023/07/25 03:57:29;;;;;;;9.68;6.30;;;15.40;99.90;;;;;;5023397;28;20113;-78
2023/07/25 03:59:54;;;;;;;10.48;7.32;;;15.40;99.90;;;;;;5018716;28;20026;-77
2023/07/25 04:02:20;;;;;;;15.02;8.20;;;15.40;99.90;;;;;;5017250;28;20116;-80
2023/07/25 04:04:45;;;;;;;72.72;11.48;;;15.30;99.90;;;;;;5017074;28;20018;-79
2023/07/25 04:07:11;;;;;;;15.65;9.40;;;15.30;99.90;;;;;;5020494;28;20026;-79
2023/07/25 04:09:37;;;;;;;10.50;8.27;;;15.30;99.90;;;;;;5019038;28;20014;-78
2023/07/25 04:12:02;;;;;;;13.95;7.85;;;15.40;99.90;;;;;;5019462;28;20014;-77
2023/07/25 04:14:28;;;;;;;11.80;8.23;;;15.40;99.90;;;;;;5013019;28;20017;-79
2023/07/25 04:16:53;;;;;;;11.65;9.05;;;15.40;99.90;;;;;;5016453;28;20021;-78
2023/07/25 04:19:19;;;;;;;12.23;9.73;;;15.50;99.90;;;;;;5018413;28;20049;-78
2023/07/25 04:21:45;;;;;;;14.63;9.18;;;15.50;99.90;;;;;;5012040;28;20022;-79
2023/07/25 04:24:10;;;;;;;11.95;9.85;;;15.60;99.90;;;;;;5014127;28;20474;-78
2023/07/25 04:26:36;;;;;;;12.35;9.65;;;15.60;99.90;;;;;;5017467;28;20022;-78
2023/07/25 04:29:01;;;;;;;13.90;10.25;;;15.70;99.90;;;;;;5048856;28;20024;-78
2023/07/25 04:31:27;;;;;;;12.88;9.25;;;15.80;99.90;;;;;;5020266;28;20009;-79
2023/07/25 04:33:53;;;;;;;11.07;8.65;;;15.80;99.90;;;;;;5010705;28;20112;-79
2023/07/25 04:36:18;;;;;;;12.57;10.02;;;15.80;99.90;;;;;;5015265;28;20035;-77
2023/07/25 04:38:44;;;;;;;11.95;9.43;;;15.80;99.90;;;;;;5014967;28;20053;-79
2023/07/25 04:41:09;;;;;;;12.98;9.45;;;15.90;99.90;;;;;;5024143;28;20028;-77
2023/07/25 04:43:35;;;;;;;12.25;8.85;;;16.00;99.90;;;;;;5018413;28;20049;-78
2023/07/25 04:46:00;;;;;;;11.70;8.88;;;16.00;99.90;;;;;;5029275;28;20018;-79
2023/07/25 04:48:26;;;;;;;13.38;9.57;;;16.00;99.90;;;;;;5009679;28;20075;-77
2023/07/25 04:50:52;;;;;;;9.15;7.55;;;16.00;99.90;;;;;;5015385;28;20375;-78
2023/07/25 04:53:17;;;;;;;14.63;8.10;;;16.10;99.90;;;;;;5013566;28;20057;-80
2023/07/25 04:55:43;;;;;;;9.82;7.57;;;16.20;99.90;;;;;;5014031;28;20501;-78
2023/07/25 04:58:09;;;;;;;9.95;7.18;;;16.30;99.90;;;;;;5010476;28;20117;-78
2023/07/25 05:00:34;;;;;;;9.55;7.63;;;16.40;99.90;;;;;;5011712;28;20486;-78
2023/07/25 05:03:00;;;;;;;11.25;7.78;;;16.60;99.90;;;;;;5011978;28;20046;-78
2023/07/25 05:05:25;;;;;;;13.27;10.90;;;16.70;99.90;;;;;;5004553;28;20038;-78
2023/07/25 05:07:51;;;;;;;15.27;9.60;;;16.90;99.90;;;;;;5018972;28;20029;-80
2023/07/25 05:10:17;;;;;;;16.58;11.25;;;17.10;99.90;;;;;;5021514;28;20382;-79
2023/07/25 05:12:42;;;;;;;17.33;11.95;;;17.20;99.90;;;;;;5014277;28;20564;-80
2023/07/25 05:15:08;;;;;;;20.25;13.80;;;17.50;99.90;;;;;;5014693;28;20022;-80
2023/07/25 05:17:34;;;;;;;22.13;14.95;;;17.50;99.90;;;;;;5014095;28;21280;-81
2023/07/25 05:19:59;;;;;;;21.30;14.25;;;17.60;99.90;;;;;;5014774;28;20105;-79
2023/07/25 05:22:25;;;;;;;21.55;15.48;;;17.70;99.90;;;;;;5002986;28;20041;-78
2023/07/25 05:24:50;;;;;;;22.60;14.77;;;17.80;99.90;;;;;;5016385;28;20028;-80
2023/07/25 05:27:16;;;;;;;23.85;15.57;;;17.90;99.90;;;;;;5023151;28;20024;-80
2023/07/25 05:29:42;;;;;;;22.40;13.98;;;18.00;99.90;;;;;;5017231;28;20025;-78
2023/07/25 05:32:07;;;;;;;19.98;13.73;;;18.10;99.90;;;;;;5021522;28;20033;-78
2023/07/25 05:34:33;;;;;;;23.27;14.20;;;18.30;99.90;;;;;;5021860;28;20036;-80
2023/07/25 05:37:00;;;;;;;18.52;13.77;;;18.50;99.90;;;;;;5016409;28;20038;-78
2023/07/25 05:39:25;;;;;;;22.85;13.93;;;18.60;99.90;;;;;;5018037;28;20108;-78
2023/07/25 05:41:51;;;;;;;18.95;13.95;;;18.80;99.90;;;;;;5007343;28;20117;-78
2023/07/25 05:44:16;;;;;;;17.00;13.52;;;18.90;99.90;;;;;;5013265;28;20030;-80
2023/07/25 05:46:42;;;;;;;20.60;12.68;;;19.00;99.90;;;;;;5017349;28;20026;-78
2023/07/25 05:49:08;;;;;;;17.73;12.55;;;19.10;99.90;;;;;;5016347;28;20033;-79
2023/07/25 05:51:33;;;;;;;19.63;12.02;;;19.30;99.90;;;;;;5017907;28;20506;-81
2023/07/25 05:53:59;;;;;;;14.50;10.20;;;19.30;99.90;;;;;;5009486;28;20041;-79
2023/07/25 05:56:24;;;;;;;18.15;12.15;;;19.40;99.90;;;;;;5014423;28;20074;-79
2023/07/25 05:58:50;;;;;;;19.98;12.52;;;19.60;99.90;;;;;;5018817;28;20051;-81
2023/07/25 06:01:16;;;;;;;16.52;10.82;;;19.70;99.90;;;;;;5014086;28;20021;-81
2023/07/25 06:03:41;;;;;;;15.07;12.23;;;19.80;99.90;;;;;;5024756;28;20029;-79
2023/07/25 06:06:07;;;;;;;15.18;11.80;;;20.00;99.90;;;;;;5016008;28;20018;-79
2023/07/25 06:08:32;;;;;;;17.05;10.38;;;20.10;99.90;;;;;;5021525;28;20459;-79
2023/07/25 06:10:58;;;;;;;14.93;11.00;;;20.20;99.90;;;;;;5009479;28;20051;-79
2023/07/25 06:13:24;;;;;;;18.45;12.13;;;20.30;99.90;;;;;;5008732;28;20445;-80
2023/07/25 06:15:51;;;;;;;16.13;11.32;;;20.30;99.90;;;;;;5001336;28;20100;-79
2023/07/25 06:18:17;;;;;;;16.20;9.98;;;20.40;99.90;;;;;;5007245;28;20041;-79
2023/07/25 06:20:42;;;;;;;17.85;10.35;;;20.60;99.90;;;;;;5011461;28;20022;-79
2023/07/25 06:23:08;;;;;;;14.43;10.60;;;20.70;99.90;;;;;;5008029;28;20034;-79
2023/07/25 06:25:33;;;;;;;20.73;9.52;;;20.80;99.90;;;;;;5029999;28;20096;-82
2023/07/25 06:27:59;;;;;;;16.38;10.20;;;20.90;99.90;;;;;;5019039;28;20181;-80
2023/07/25 06:30:25;;;;;;;16.20;10.43;;;21.00;99.90;;;;;;5018919;28;20034;-79
2023/07/25 06:32:50;;;;;;;16.40;11.27;;;21.10;99.90;;;;;;5026817;28;20021;-79
2023/07/25 06:35:16;;;;;;;17.15;11.25;;;21.10;99.90;;;;;;5021624;28;20062;-79
2023/07/25 06:37:42;;;;;;;16.38;10.10;;;21.20;99.90;;;;;;5023245;28;20375;-79
2023/07/25 06:40:08;;;;;;;12.93;8.73;;;21.30;99.90;;;;;;5017562;28;20398;-81
2023/07/25 06:42:33;;;;;;;16.50;8.52;;;21.50;99.90;;;;;;5026120;28;20038;-82
2023/07/25 06:44:59;;;;;;;11.73;9.13;;;21.50;99.90;;;;;;5017585;28;20030;-80
2023/07/25 06:47:25;;;;;;;11.40;7.90;;;21.70;99.90;;;;;;5015674;28;20109;-79
2023/07/25 06:49:50;;;;;;;14.40;8.52;;;21.80;99.90;;;;;;5002785;28;20018;-81
2023/07/25 06:52:16;;;;;;;12.20;7.80;;;22.00;99.90;;;;;;5011496;28;20563;-80
2023/07/25 06:54:43;;;;;;;14.25;8.75;;;22.10;99.90;;;;;;5017207;28;20390;-78
2023/07/25 06:57:08;;;;;;;11.35;7.82;;;22.20;99.90;;;;;;5009268;28;20026;-79
2023/07/25 06:59:34;;;;;;;11.80;7.70;;;22.30;99.90;;;;;;5012162;28;20116;-79
2023/07/25 07:02:00;;;;;;;13.60;8.43;;;22.40;99.90;;;;;;4998190;28;20139;-79
2023/07/25 07:04:25;;;;;;;11.70;7.93;;;22.60;99.90;;;;;;5006375;28;20018;-81
2023/07/25 07:06:51;;;;;;;13.13;7.85;;;22.70;99.90;;;;;;4995275;28;20030;-79
2023/07/25 07:09:16;;;;;;;9.82;7.13;;;22.80;99.90;;;;;;5007030;28;20504;-79
2023/07/25 07:11:42;;;;;;;12.65;7.50;;;22.90;99.90;;;;;;5011058;28;20110;-80
2023/07/25 07:14:08;;;;;;;11.23;7.50;;;22.90;99.90;;;;;;5015640;28;20067;-79
2023/07/25 07:16:33;;;;;;;12.32;7.60;;;23.00;99.90;;;;;;5022956;28;20079;-79
2023/07/25 07:18:59;;;;;;;10.80;7.40;;;23.10;99.90;;;;;;5014466;28;20018;-79
2023/07/25 07:21:25;;;;;;;8.85;6.80;;;23.10;99.90;;;;;;5013605;28;20109;-79
2023/07/25 07:23:51;;;;;;;9.05;6.60;;;23.20;99.90;;;;;;5010592;28;20026;-79
2023/07/25 07:26:16;;;;;;;11.13;7.70;;;23.40;98.20;;;;;;5022621;28;20021;-79
2023/07/25 07:28:42;;;;;;;8.40;6.68;;;23.40;90.70;;;;;;5068932;28;20026;-79
2023/07/25 07:31:12;;;;;;;8.88;6.63;;;23.50;92.70;;;;;;5014855;28;20456;-80
2023/07/25 07:33:38;;;;;;;10.05;7.40;;;23.60;91.30;;;;;;5025421;28;20025;-79
2023/07/25 07:36:04;;;;;;;9.50;7.10;;;23.80;95.50;;;;;;5012587;28;20131;-80
2023/07/25 07:38:29;;;;;;;11.10;7.22;;;23.80;89.90;;;;;;4998208;28;20030;-79
2023/07/25 07:40:55;;;;;;;9.15;6.50;;;23.80;90.60;;;;;;5019000;28;20022;-79
2023/07/25 07:43:21;;;;;;;11.35;6.53;;;23.70;84.70;;;;;;5011313;28;20022;-79
2023/07/25 07:45:46;;;;;;;9.32;6.05;;;23.80;84.30;;;;;;5017529;28;20393;-80
2023/07/25 07:48:12;;;;;;;8.98;7.07;;;24.00;85.60;;;;;;5021286;28;20056;-80
2023/07/25 07:50:37;;;;;;;9.90;7.05;;;24.00;86.70;;;;;;5018121;28;20026;-80
2023/07/25 07:53:03;;;;;;;11.57;6.85;;;23.90;83.10;;;;;;5024566;28;20069;-80
2023/07/25 07:55:29;;;;;;;14.75;9.15;;;24.20;85.00;;;;;;5010085;28;20387;-81
2023/07/25 07:57:55;;;;;;;11.05;7.32;;;24.20;83.20;;;;;;5016822;28;20021;-82
2023/07/25 08:00:21;;;;;;;11.45;8.25;;;24.30;86.70;;;;;;5019855;28;20402;-81
2023/07/25 08:02:47;;;;;;;10.52;8.23;;;24.40;83.80;;;;;;5029683;28;20018;-81
2023/07/25 08:05:13;;;;;;;12.93;8.75;;;24.40;88.90;;;;;;5028553;28;20474;-81
2023/07/25 08:07:39;;;;;;;12.27;8.80;;;24.40;85.00;;;;;;5018129;28;20087;-81
2023/07/25 08:10:05;;;;;;;13.35;9.15;;;24.40;86.40;;;;;;5014749;28;20021;-80
2023/07/25 08:12:31;;;;;;;14.93;9.15;;;24.70;84.30;;;;;;5016487;28;20056;-81
2023/07/25 08:14:56;;;;;;;13.23;9.98;;;24.80;85.50;;;;;;5011344;28;20088;-81
2023/07/25 08:17:22;;;;;;;15.40;8.95;;;24.90;83.20;;;;;;5009798;28;20475;-81
2023/07/25 08:19:48;;;;;;;15.55;9.35;;;24.80;79.30;;;;;;5021147;28;20018;-81
2023/07/25 08:22:14;;;;;;;14.35;9.00;;;24.70;76.60;;;;;;5024101;28;20078;-80
2023/07/25 08:24:40;;;;;;;14.40;8.52;;;24.70;78.50;;;;;;5017007;28;20498;-80
2023/07/25 08:27:07;;;;;;;18.08;8.90;;;24.70;76.50;;;;;;5028122;28;20452;-80
2023/07/25 08:29:32;;;;;;;16.65;9.88;;;24.80;78.00;;;;;;5024894;28;20106;-79
2023/07/25 08:31:58;;;;;;;16.45;10.48;;;24.80;79.10;;;;;;5012963;28;20022;-80
2023/07/25 08:34:24;;;;;;;12.32;8.68;;;24.80;80.70;;;;;;5009537;28;20538;-79
2023/07/25 08:36:49;;;;;;;14.60;9.43;;;24.80;80.10;;;;;;5010967;28;20022;-79
2023/07/25 08:39:15;;;;;;;15.02;9.95;;;24.80;79.60;;;;;;5008512;28;20026;-79
2023/07/25 08:41:49;;;;;;;14.48;9.82;;;24.80;76.50;;;;;;5011400;28;20029;-79
2023/07/25 08:44:17;;;;;;;14.75;10.13;;;24.90;77.50;;;;;;5011664;28;20486;-80
2023/07/25 08:46:45;;;;;;;13.50;10.38;;;24.50;76.20;;;;;;5009736;28;20018;-79
2023/07/25 08:49:15;;;;;;;14.05;9.77;;;24.20;77.50;;;;;;5011115;28;20018;-79
2023/07/25 08:51:43;;;;;;;14.65;10.05;;;24.30;81.80;;;;;;4996297;28;20176;-79
2023/07/25 08:54:31;;;;;;;11.23;9.52;;;24.40;78.00;;;;;;5010467;28;20095;-80
2023/07/25 08:56:58;;;;;;;15.40;11.88;;;24.80;78.90;;;;;;4994330;28;20094;-80
2023/07/25 08:59:25;;;;;;;15.55;9.85;;;24.60;76.50;;;;;;5010306;28;20022;-79
2023/07/25 09:01:52;;;;;;;13.38;9.70;;;24.40;76.60;;;;;;5011499;28;20049;-79
2023/07/25 09:04:19;;;;;;;13.27;9.43;;;24.20;76.40;;;;;;5011558;28;20018;-79
2023/07/25 09:06:45;;;;;;;15.68;10.45;;;24.00;76.70;;;;;;5011368;28;20026;-79
2023/07/25 09:09:11;;;;;;;14.38;10.82;;;24.00;79.00;;;;;;5010319;28;20040;-79
2023/07/25 09:11:37;;;;;;;16.75;10.90;;;24.10;79.70;;;;;;5011386;28;20062;-80
2023/07/25 09:14:03;;;;;;;14.48;10.25;;;24.00;81.90;;;;;;5011067;28;20134;-79
2023/07/25 09:16:30;;;;;;;14.63;11.30;;;23.90;82.10;;;;;;5009843;28;20441;-80
2023/07/25 09:18:55;;;;;;;15.25;10.38;;;23.80;82.40;;;;;;5009982;28;20061;-79
2023/07/25 09:21:21;;;;;;;13.65;10.70;;;24.00;82.70;;;;;;5010835;28;20049;-79
2023/07/25 09:23:52;;;;;;;17.05;11.32;;;23.90;82.10;;;;;;5010071;28;20394;-79
2023/07/25 09:26:22;;;;;;;17.35;11.05;;;24.00;81.00;;;;;;5009679;28;20037;-79
2023/07/25 09:28:53;;;;;;;14.60;9.75;;;24.40;81.40;;;;;;5074075;28;20437;-79
2023/07/25 09:31:20;;;;;;;11.88;8.70;;;24.60;80.30;;;;;;5009996;28;20030;-79
2023/07/25 09:33:47;;;;;;;11.57;8.38;;;24.80;78.50;;;;;;5010905;28;20107;-80
2023/07/25 09:36:12;;;;;;;13.13;8.30;;;24.90;76.70;;;;;;5011049;28;20026;-79
2023/07/25 09:38:55;;;;;;;15.00;8.57;;;24.90;75.40;;;;;;5009605;28;20029;-79
2023/07/25 09:41:25;;;;;;;11.30;8.35;;;24.80;76.40;;;;;;5009514;28;20029;-80
2023/07/25 09:43:51;;;;;;;12.30;7.25;;;24.70;74.30;;;;;;5009709;28;20432;-80
2023/07/25 09:46:17;;;;;;;12.05;8.48;;;24.70;74.90;;;;;;5009406;28;20535;-79
2023/07/25 09:48:45;;;;;;;12.52;8.48;;;24.50;74.20;;;;;;5010917;28;20029;-79
2023/07/25 09:51:12;;;;;;;11.32;8.73;;;24.40;74.50;;;;;;5010689;28;20574;-79
2023/07/25 09:53:38;;;;;;;11.48;8.10;;;24.20;75.00;;;;;;5010755;28;20065;-80
2023/07/25 09:56:04;;;;;;;13.05;8.55;;;24.20;77.70;;;;;;4991931;28;20026;-79
2023/07/25 09:58:31;;;;;;;13.38;9.27;;;24.10;77.50;;;;;;5001068;28;20033;-79
2023/07/25 10:00:57;;;;;;;15.85;9.43;;;24.00;72.80;;;;;;5001608;28;20475;-79
2023/07/25 10:03:23;;;;;;;14.40;9.70;;;24.40;72.70;;;;;;5010449;28;20059;-80
2023/07/25 10:05:49;;;;;;;15.07;9.05;;;24.70;75.10;;;;;;5009138;28;20110;-79
2023/07/25 10:08:16;;;;;;;9.43;7.70;;;24.80;74.00;;;;;;5010126;28;20021;-79
2023/07/25 10:10:42;;;;;;;9.90;8.43;;;25.00;75.40;;;;;;5009352;28;20117;-79
2023/07/25 10:13:09;;;;;;;10.65;7.47;;;25.10;69.80;;;;;;5008068;28;20449;-79
2023/07/25 10:15:35;;;;;;;11.48;8.13;;;25.20;70.10;;;;;;4999219;28;20019;-79
2023/07/25 10:18:16;;;;;;;12.68;7.32;;;25.60;69.70;;;;;;5008770;28;20382;-79
2023/07/25 10:20:41;;;;;;;10.88;6.97;;;25.70;66.90;;;;;;5008977;28;20109;-79
2023/07/25 10:23:11;;;;;;;11.65;7.90;;;26.00;66.60;;;;;;5010287;28;20045;-80
2023/07/25 10:25:37;;;;;;;11.77;7.65;;;26.20;66.90;;;;;;5009151;28;20067;-80
2023/07/25 10:28:04;;;;;;;12.63;6.47;;;26.30;66.30;;;;;;5059469;28;20046;-79
2023/07/25 10:30:31;;;;;;;7.57;6.20;;;26.10;64.50;;;;;;4998348;28;20382;-81
2023/07/25 10:33:02;;;;;;;9.00;6.18;;;25.80;61.30;;;;;;5008844;28;20445;-79
2023/07/25 10:35:49;;;;;;;8.98;7.07;;;26.20;63.60;;;;;;5010163;28;20022;-80
2023/07/25 10:38:21;;;;;;;7.90;6.30;;;26.30;63.90;;;;;;5010044;28;20411;-80
2023/07/25 10:40:50;;;;;;;8.07;6.13;;;26.50;63.00;;;;;;5009938;28;20032;-80
2023/07/25 10:43:16;;;;;;;8.80;6.22;;;26.70;61.90;;;;;;5008948;28;20026;-80
2023/07/25 10:45:45;;;;;;;10.88;6.57;;;26.80;60.40;;;;;;5008641;28;20082;-80
2023/07/25 10:48:49;;;;;;;7.05;5.35;;;27.10;62.50;;;;;;5009583;28;20057;-80
2023/07/25 10:51:17;;;;;;;8.80;6.35;;;27.30;61.80;;;;;;5009542;28;20121;-81
2023/07/25 10:54:10;;;;;;;18.33;12.93;;;27.20;59.50;;;;;;5009758;28;20099;-80
2023/07/25 10:56:39;;;;;;;17.02;13.10;;;27.40;59.80;;;;;;5005112;28;20029;-80
2023/07/25 10:59:12;;;;;;;25.52;16.65;;;27.80;58.50;;;;;;4995474;28;20014;-81
2023/07/25 11:01:43;;;;;;;8.80;6.85;;;27.60;56.10;;;;;;5008822;28;20041;-80
2023/07/25 11:04:24;;;;;;;7.90;5.25;;;27.70;57.10;;;;;;5009714;28;20053;-80
2023/07/25 11:06:53;;;;;;;14.35;10.32;;;27.40;57.90;;;;;;5009947;28;20399;-80
2023/07/25 11:09:23;;;;;;;38.10;24.92;;;27.30;57.50;;;;;;4995867;28;20018;-81
2023/07/25 11:11:51;;;;;;;40.83;26.90;;;27.40;58.80;;;;;;5009725;28;20498;-79
2023/07/25 11:14:18;;;;;;;60.67;36.63;;;27.20;57.70;;;;;;5009712;28;20422;-80
2023/07/25 11:16:47;;;;;;;46.38;32.55;;;27.00;57.90;;;;;;5009688;28;20022;-79
2023/07/25 11:19:14;;;;;;;16.88;11.57;;;26.90;57.80;;;;;;5009816;28;20026;-80
2023/07/25 11:21:41;;;;;;;7.45;6.55;;;26.80;58.40;;;;;;5008322;28;20036;-79
2023/07/25 11:24:07;;;;;;;9.55;7.93;;;26.80;58.50;;;;;;5009668;28;20481;-79
2023/07/25 11:26:34;;;;;;;10.82;9.00;;;26.60;58.80;;;;;;5011299;28;20051;-80
2023/07/25 11:29:04;;;;;;;15.15;9.77;;;26.50;61.40;;;;;;5073000;28;20030;-80
2023/07/25 11:31:30;;;;;;;14.07;9.38;;;26.50;61.20;;;;;;5007864;28;20034;-79
2023/07/25 11:33:55;;;;;;;7.90;6.50;;;26.30;60.20;;;;;;4997811;28;20387;-78
2023/07/25 11:36:21;;;;;;;8.38;5.85;;;26.10;60.50;;;;;;4996620;28;20490;-78
2023/07/25 11:38:47;;;;;;;13.70;8.40;;;25.90;60.10;;;;;;4992446;28;20431;-79
2023/07/25 11:41:13;;;;;;;8.85;6.43;;;25.90;61.80;;;;;;4993772;28;20028;-79
2023/07/25 11:43:39;;;;;;;9.82;7.30;;;26.00;63.80;;;;;;4992655;28;20026;-79
2023/07/25 11:46:04;;;;;;;7.35;5.88;;;25.90;62.70;;;;;;4994510;28;20392;-79
2023/07/25 11:48:31;;;;;;;11.35;8.05;;;25.80;60.70;;;;;;4992112;28;20026;-79
2023/07/25 11:50:58;;;;;;;7.65;6.40;;;25.60;61.10;;;;;;4992006;28;20034;-79
2023/07/25 11:53:26;;;;;;;7.28;5.97;;;25.60;61.50;;;;;;5002827;28;20091;-79
2023/07/25 11:55:53;;;;;;;9.70;8.45;;;25.50;62.30;;;;;;5010392;28;20107;-79
2023/07/25 11:58:20;;;;;;;8.50;5.53;;;25.60;64.20;;;;;;5002488;28;20562;-79
2023/07/25 12:00:51;;;;;;;8.40;5.72;;;25.50;64.10;;;;;;5001949;28;20027;-79
2023/07/25 12:03:21;;;;;;;10.48;6.78;;;25.50;64.90;;;;;;5001121;28;20026;-79
2023/07/25 12:05:56;;;;;;;15.10;8.00;;;25.40;65.60;;;;;;5005686;28;20495;-79
2023/07/25 12:08:35;;;;;;;9.57;7.13;;;25.40;65.30;;;;;;4999408;28;20022;-79
2023/07/25 12:11:06;;;;;;;7.88;5.93;;;25.20;66.20;;;;;;5003855;28;20431;-79
2023/07/25 12:13:41;;;;;;;7.40;5.45;;;24.80;67.70;;;;;;4998152;28;20038;-78
2023/07/25 12:16:06;;;;;;;6.20;5.30;;;24.60;69.40;;;;;;4999063;28;20023;-79
2023/07/25 12:18:35;;;;;;;7.63;5.38;;;24.40;69.80;;;;;;5011212;28;20014;-79
2023/07/25 12:21:03;;;;;;;6.60;5.50;;;24.10;69.30;;;;;;5006247;28;21262;-78
2023/07/25 12:23:37;;;;;;;7.20;5.50;;;24.10;70.90;;;;;;5001720;28;20018;-79
2023/07/25 12:26:04;;;;;;;7.95;5.20;;;23.70;69.90;;;;;;4997689;28;20022;-79
2023/07/25 12:28:40;;;;;;;7.95;4.90;;;23.60;72.80;;;;;;5007717;28;20537;-79
2023/07/25 12:31:06;;;;;;;7.82;5.00;;;23.50;72.50;;;;;;5000900;28;20080;-79
2023/07/25 12:33:31;;;;;;;6.80;4.97;;;23.30;72.60;;;;;;4994551;28;20462;-79
2023/07/25 12:35:57;;;;;;;9.43;4.72;;;23.00;74.50;;;;;;5001194;28;20498;-79